Adrian, Washington
Current Conditions -  °F | °C
As of 1:07 AM on Wednesday 28 Jan 2015 (Local Time) from KEPH Reporting Station
Haze Haze  
Wind Chill: 32°   Ceiling: 200
Heat Index: 36°   Visibility: 2mi
Dew Point: 35°   Wind: 5mph
Humidity: 97%   Direction: 160°SSE
Pressure: 30.21"   Gusts: NA
Location:  47.4314°N, 119.485°W
Report Text: KEPH 280907Z AUTO 16004KT 2SM BR OVC002 02/02 A3021 RMK AO2 T00220017
Loading
Personal Weather Stations






























Interactive Weather Map New forecast layout! Learn more

10-Day Weather Forecast

Advertisements
Track Severe Weather on mobile